createdAt,value
2018-10-03T00:01:37.662Z,3.17
2018-10-03T00:04:05.823Z,2.77
2018-10-03T00:06:33.991Z,2.58
2018-10-03T00:09:02.155Z,3.22
2018-10-03T00:11:30.322Z,3.27
2018-10-03T00:13:58.476Z,2.77
2018-10-03T00:16:26.640Z,3.67
2018-10-03T00:18:54.790Z,4.08
2018-10-03T00:21:22.959Z,3.27
2018-10-03T00:23:51.127Z,3.22
2018-10-03T00:26:19.302Z,2.98
2018-10-03T00:28:47.583Z,3.17
2018-10-03T00:31:15.743Z,1.82
2018-10-03T00:33:43.917Z,2.27
2018-10-03T00:36:12.174Z,2.77
2018-10-03T00:38:40.364Z,3.87
2018-10-03T00:41:08.976Z,3.37
2018-10-03T00:43:37.452Z,4.33
2018-10-03T00:46:05.627Z,3.35
2018-10-03T00:48:33.800Z,3.30
2018-10-03T00:51:01.964Z,3.17
2018-10-03T00:53:30.151Z,3.20
2018-10-03T00:55:58.311Z,3.58
2018-10-03T00:58:26.484Z,2.98
2018-10-03T01:00:54.654Z,2.87
2018-10-03T01:03:22.835Z,3.20
2018-10-03T01:05:51.003Z,3.85
2018-10-03T01:08:19.167Z,3.45
2018-10-03T01:10:47.352Z,3.45
2018-10-03T01:13:15.513Z,3.20
2018-10-03T01:15:43.662Z,2.12
2018-10-03T01:18:11.815Z,2.80
2018-10-03T01:20:40.079Z,3.27
2018-10-03T01:23:08.331Z,2.70
2018-10-03T01:25:36.527Z,2.10
2018-10-03T01:28:04.832Z,2.65
2018-10-03T01:30:32.994Z,3.33
2018-10-03T01:33:01.199Z,2.60
2018-10-03T01:35:29.464Z,3.58
2018-10-03T01:37:57.741Z,3.27
2018-10-03T01:40:25.918Z,3.33
2018-10-03T01:42:54.136Z,2.90
2018-10-03T01:45:22.418Z,4.15
2018-10-03T01:47:50.755Z,2.90
2018-10-03T01:50:18.926Z,2.85
2018-10-03T01:52:47.184Z,3.55
2018-10-03T01:55:15.383Z,3.12
2018-10-03T01:57:43.582Z,4.08
2018-10-03T02:00:11.791Z,3.00
2018-10-03T02:02:40.007Z,3.25
2018-10-03T02:05:08.223Z,2.85
2018-10-03T02:07:36.472Z,2.27
2018-10-03T02:10:04.803Z,3.02
2018-10-03T02:12:32.999Z,3.80
2018-10-03T02:15:01.171Z,3.67
2018-10-03T02:17:29.364Z,3.00
2018-10-03T02:19:57.592Z,3.55
2018-10-03T02:22:25.811Z,2.50
2018-10-03T02:24:54.020Z,2.50
2018-10-03T02:27:22.364Z,2.90
2018-10-03T02:29:50.583Z,3.12
2018-10-03T02:32:18.791Z,4.10
2018-10-03T02:34:46.954Z,3.10
2018-10-03T02:37:15.185Z,3.33
2018-10-03T02:39:43.375Z,3.12
2018-10-03T02:42:11.601Z,3.30
2018-10-03T02:44:39.797Z,2.52
2018-10-03T02:47:08.004Z,3.85
2018-10-03T02:49:36.198Z,4.03
2018-10-03T02:52:04.395Z,3.20
2018-10-03T02:54:32.589Z,3.67
2018-10-03T02:57:00.767Z,2.95
2018-10-03T02:59:28.933Z,3.27
2018-10-03T03:01:57.140Z,3.37
2018-10-03T03:04:25.340Z,2.50
2018-10-03T03:06:53.566Z,2.90
2018-10-03T03:09:21.776Z,3.72
2018-10-03T03:11:49.975Z,3.80
2018-10-03T03:14:18.162Z,3.10
2018-10-03T03:16:46.329Z,2.90
2018-10-03T03:19:14.502Z,4.72
2018-10-03T03:21:42.679Z,4.67
2018-10-03T03:24:10.890Z,4.37
2018-10-03T03:26:39.105Z,2.92
2018-10-03T03:29:07.323Z,2.60
2018-10-03T03:31:35.527Z,2.77
2018-10-03T03:34:03.759Z,4.15
2018-10-03T03:36:31.927Z,3.30
2018-10-03T03:39:00.182Z,3.52
2018-10-03T03:41:28.415Z,3.67
2018-10-03T03:43:56.599Z,3.75
2018-10-03T03:46:24.891Z,3.25
2018-10-03T03:48:53.127Z,3.02
2018-10-03T03:51:21.418Z,2.75
2018-10-03T03:53:49.686Z,3.20
2018-10-03T03:56:17.855Z,4.90
2018-10-03T03:58:46.053Z,4.45
2018-10-03T04:01:14.247Z,4.47
2018-10-03T04:03:42.500Z,3.22
2018-10-03T04:06:10.706Z,3.70
2018-10-03T04:08:38.922Z,3.77
2018-10-03T04:11:07.117Z,3.35
2018-10-03T04:13:35.304Z,3.62
2018-10-03T04:16:03.471Z,3.40
2018-10-03T04:18:31.643Z,3.90
2018-10-03T04:20:59.818Z,2.60
2018-10-03T04:23:28.022Z,4.08
2018-10-03T04:25:56.218Z,3.87
2018-10-03T04:28:24.396Z,3.30
2018-10-03T04:30:52.552Z,3.37
2018-10-03T04:33:20.804Z,4.20
2018-10-03T04:35:49.094Z,4.37
2018-10-03T04:38:17.214Z,2.95
2018-10-03T04:40:45.448Z,3.50
2018-10-03T04:43:13.701Z,3.85
2018-10-03T04:45:41.870Z,3.35
2018-10-03T04:48:10.138Z,3.77
2018-10-03T04:50:38.342Z,3.67
2018-10-03T04:53:06.543Z,3.87
2018-10-03T04:55:34.910Z,4.15
2018-10-03T04:58:03.346Z,3.62
2018-10-03T05:00:31.571Z,2.98
2018-10-03T05:02:59.807Z,3.27
2018-10-03T05:05:28.052Z,4.22
2018-10-03T05:07:56.250Z,2.50
2018-10-03T05:10:24.470Z,3.35
2018-10-03T05:12:52.674Z,2.92
2018-10-03T05:15:20.863Z,3.65
2018-10-03T05:17:49.091Z,3.20
2018-10-03T05:20:18.219Z,3.90
2018-10-03T05:22:46.499Z,2.75
2018-10-03T05:25:14.695Z,2.83
2018-10-03T05:27:42.903Z,2.20
2018-10-03T05:30:11.191Z,3.20
2018-10-03T05:32:39.358Z,3.95
2018-10-03T05:35:08.502Z,4.12
2018-10-03T05:37:36.678Z,4.65
2018-10-03T05:40:04.889Z,2.80
2018-10-03T05:42:33.094Z,4.03
2018-10-03T05:45:02.077Z,3.17
2018-10-03T05:47:30.491Z,3.80
2018-10-03T05:49:58.716Z,2.85
2018-10-03T05:52:26.883Z,3.52
2018-10-03T05:54:55.134Z,3.25
2018-10-03T05:57:23.331Z,3.33
2018-10-03T05:59:51.538Z,3.20
2018-10-03T06:02:19.819Z,3.15
2018-10-03T06:04:49.058Z,3.00
2018-10-03T06:07:17.288Z,3.02
2018-10-03T06:09:45.598Z,3.37
2018-10-03T06:12:13.873Z,2.98
2018-10-03T06:14:42.028Z,4.00
2018-10-03T06:17:10.294Z,3.05
2018-10-03T06:19:38.504Z,3.17
2018-10-03T06:22:06.784Z,4.22
2018-10-03T06:24:35.013Z,3.85
2018-10-03T06:27:03.227Z,3.70
2018-10-03T06:29:31.398Z,3.15
2018-10-03T06:31:59.577Z,3.98
2018-10-03T06:34:27.778Z,4.47
2018-10-03T06:36:55.955Z,4.58
2018-10-03T06:39:24.313Z,3.75
2018-10-03T06:41:52.464Z,2.98
2018-10-03T06:44:20.695Z,2.83
2018-10-03T06:46:48.866Z,3.65
2018-10-03T06:49:17.064Z,3.02
2018-10-03T06:51:45.228Z,3.22
2018-10-03T06:54:13.416Z,3.37
2018-10-03T06:56:41.811Z,3.30
2018-10-03T06:59:10.111Z,3.83
2018-10-03T07:01:38.339Z,3.85
2018-10-03T07:04:06.835Z,3.83
2018-10-03T07:06:35.042Z,3.08
2018-10-03T07:09:04.188Z,4.30
2018-10-03T07:11:32.394Z,3.75
2018-10-03T07:14:00.654Z,5.00
2018-10-03T07:16:28.874Z,4.67
2018-10-03T07:18:57.119Z,3.50
2018-10-03T07:21:25.288Z,4.10
2018-10-03T07:23:53.467Z,3.58
2018-10-03T07:26:21.650Z,3.62
2018-10-03T07:28:49.932Z,3.77
2018-10-03T07:31:18.491Z,2.95
2018-10-03T07:33:46.669Z,3.00
2018-10-03T07:36:14.891Z,3.17
2018-10-03T07:38:43.120Z,2.87
2018-10-03T07:41:11.347Z,3.30
2018-10-03T07:43:39.541Z,2.72
2018-10-03T07:46:07.748Z,3.52
2018-10-03T07:48:35.983Z,3.50
2018-10-03T07:51:04.290Z,3.22
2018-10-03T07:53:32.634Z,3.22
2018-10-03T07:56:00.761Z,2.65
2018-10-03T07:58:29.027Z,3.50
2018-10-03T08:00:57.245Z,3.05
2018-10-03T08:03:25.414Z,2.72
2018-10-03T08:05:53.613Z,3.58
2018-10-03T08:08:21.794Z,2.75
2018-10-03T08:10:49.986Z,3.77
2018-10-03T08:13:18.154Z,3.62
2018-10-03T08:15:46.434Z,2.62
2018-10-03T08:18:14.593Z,3.15
2018-10-03T08:20:42.754Z,2.10
2018-10-03T08:23:10.947Z,3.67
2018-10-03T08:25:39.266Z,3.00
2018-10-03T08:28:07.411Z,2.52
2018-10-03T08:30:35.590Z,3.42
2018-10-03T08:33:03.769Z,2.90
2018-10-03T08:35:31.928Z,2.75
2018-10-03T08:38:00.091Z,2.70
2018-10-03T08:40:28.471Z,3.45
2018-10-03T08:42:56.727Z,2.55
2018-10-03T08:45:25.641Z,2.90
2018-10-03T08:47:53.944Z,2.10
2018-10-03T08:50:22.134Z,3.47
2018-10-03T08:52:50.308Z,3.83
2018-10-03T08:55:18.562Z,2.75
2018-10-03T08:57:46.936Z,2.80
2018-10-03T09:00:15.078Z,2.50
2018-10-03T09:02:43.283Z,3.02
2018-10-03T09:05:12.091Z,2.52
2018-10-03T09:07:40.283Z,3.35
2018-10-03T09:10:08.455Z,2.77
2018-10-03T09:12:36.718Z,2.40
2018-10-03T09:15:05.417Z,2.60
2018-10-03T09:17:33.594Z,2.10
2018-10-03T09:20:01.765Z,2.67
2018-10-03T09:22:30.143Z,2.40
2018-10-03T09:24:58.317Z,2.87
2018-10-03T09:27:26.615Z,3.20
2018-10-03T09:30:01.608Z,2.65
2018-10-03T09:32:29.875Z,2.70
2018-10-03T09:34:58.131Z,3.47
2018-10-03T09:37:26.398Z,2.50
2018-10-03T09:39:54.653Z,2.90
2018-10-03T09:42:22.998Z,2.58
2018-10-03T09:44:51.186Z,2.92
2018-10-03T09:47:19.355Z,2.62
2018-10-03T09:49:47.546Z,2.98
2018-10-03T09:52:15.742Z,2.58
2018-10-03T09:54:43.946Z,2.27
2018-10-03T09:57:12.138Z,2.02
2018-10-03T09:59:40.388Z,2.40
2018-10-03T10:02:08.675Z,1.65
2018-10-03T10:04:37.008Z,2.25
2018-10-03T10:07:05.200Z,2.27
2018-10-03T10:09:33.370Z,2.25
2018-10-03T10:12:01.701Z,1.87
2018-10-03T10:14:30.319Z,2.00
2018-10-03T10:17:00.752Z,1.80
2018-10-03T10:19:28.941Z,2.17
2018-10-03T10:21:57.630Z,2.50
2018-10-03T10:24:26.209Z,2.22
2018-10-03T10:26:54.395Z,2.30
2018-10-03T10:29:22.962Z,2.15
2018-10-03T10:31:51.169Z,2.52
2018-10-03T10:34:19.323Z,2.80
2018-10-03T10:36:47.737Z,2.30
2018-10-03T10:39:16.051Z,2.10
2018-10-03T10:41:44.216Z,2.33
2018-10-03T10:44:12.437Z,1.85
2018-10-03T10:46:40.704Z,1.70
2018-10-03T10:49:09.199Z,2.08
2018-10-03T10:51:37.820Z,1.60
2018-10-03T10:54:05.983Z,1.62
2018-10-03T10:56:34.170Z,1.60
2018-10-03T10:59:02.573Z,1.62
2018-10-03T11:01:30.750Z,2.47
2018-10-03T11:03:58.979Z,2.20
2018-10-03T11:06:27.225Z,1.90
2018-10-03T11:08:55.558Z,2.30
2018-10-03T11:11:23.859Z,2.30
2018-10-03T11:13:52.031Z,2.00
2018-10-03T11:16:20.344Z,1.70
2018-10-03T11:18:48.535Z,2.22
2018-10-03T11:21:16.738Z,1.50
2018-10-03T11:23:45.063Z,3.05
2018-10-03T11:26:13.135Z,2.50
2018-10-03T11:28:41.315Z,2.83
2018-10-03T11:31:09.582Z,1.98
2018-10-03T11:33:37.801Z,2.12
2018-10-03T11:36:06.032Z,1.72
2018-10-03T11:38:34.328Z,2.15
2018-10-03T11:41:02.564Z,2.33
2018-10-03T11:43:30.841Z,1.95
2018-10-03T11:46:00.216Z,1.90
2018-10-03T11:48:29.735Z,2.12
2018-10-03T11:50:59.142Z,1.75
2018-10-03T11:53:27.378Z,1.65
2018-10-03T11:55:55.554Z,1.80
2018-10-03T11:58:23.831Z,1.50
2018-10-03T12:00:52.274Z,1.32
2018-10-03T12:03:20.576Z,1.75
2018-10-03T12:05:48.652Z,1.75
2018-10-03T12:08:16.985Z,1.52
2018-10-03T12:10:45.143Z,1.80
2018-10-03T12:13:13.314Z,2.33
2018-10-03T12:15:41.502Z,1.70
2018-10-03T12:18:10.499Z,1.82
2018-10-03T12:20:38.621Z,1.65
2018-10-03T12:23:06.859Z,1.22
2018-10-03T12:25:35.024Z,1.20
2018-10-03T12:28:03.186Z,1.80
2018-10-03T12:30:31.366Z,1.85
2018-10-03T12:32:59.535Z,1.50
2018-10-03T12:35:32.832Z,1.98
2018-10-03T12:38:01.187Z,1.70
2018-10-03T12:40:29.592Z,1.85
2018-10-03T12:42:57.772Z,1.90
2018-10-03T12:45:26.558Z,1.45
2018-10-03T12:47:54.935Z,1.72
2018-10-03T12:50:23.107Z,1.52
2018-10-03T12:52:51.362Z,1.80
2018-10-03T12:55:19.558Z,1.72
2018-10-03T12:57:47.788Z,2.33
2018-10-03T13:00:16.214Z,1.52
2018-10-03T13:02:44.399Z,1.60
2018-10-03T13:05:12.585Z,1.60
2018-10-03T13:07:42.376Z,1.50
2018-10-03T13:10:10.559Z,1.60
2018-10-03T13:12:38.702Z,2.25
2018-10-03T13:15:06.978Z,1.47
2018-10-03T13:17:35.158Z,2.00
2018-10-03T13:20:03.316Z,1.92
2018-10-03T13:22:31.508Z,1.40
2018-10-03T13:24:59.670Z,2.15
2018-10-03T13:27:27.987Z,1.65
2018-10-03T13:29:56.194Z,1.80
2018-10-03T13:32:24.405Z,1.00
2018-10-03T13:34:52.575Z,1.70
2018-10-03T13:37:20.737Z,1.80
2018-10-03T13:39:48.925Z,1.85
2018-10-03T13:42:17.074Z,1.60
2018-10-03T13:44:45.267Z,1.65
2018-10-03T13:47:13.443Z,1.72
2018-10-03T13:49:41.631Z,1.72
2018-10-03T13:52:09.790Z,1.70
2018-10-03T13:54:38.067Z,1.40
2018-10-03T13:57:06.239Z,2.20
2018-10-03T13:59:34.420Z,2.00
2018-10-03T14:02:02.583Z,1.85
2018-10-03T14:04:32.586Z,1.20
2018-10-03T14:07:00.999Z,1.30
2018-10-03T14:09:29.194Z,1.50
2018-10-03T14:11:58.600Z,1.87
2018-10-03T14:14:27.654Z,1.80
2018-10-03T14:16:55.840Z,1.60
2018-10-03T14:19:24.035Z,1.65
2018-10-03T14:21:52.199Z,1.65
2018-10-03T14:24:20.425Z,1.72
2018-10-03T14:26:48.551Z,1.20
2018-10-03T14:29:16.763Z,1.20
2018-10-03T14:31:44.911Z,1.62
2018-10-03T14:34:13.075Z,1.60
2018-10-03T14:36:41.254Z,1.87
2018-10-03T14:39:09.706Z,1.70
2018-10-03T14:41:37.866Z,1.62
2018-10-03T14:44:06.037Z,1.57
2018-10-03T14:46:34.316Z,1.55
2018-10-03T14:49:02.418Z,1.90
2018-10-03T14:51:30.627Z,1.52
2018-10-03T14:53:58.797Z,1.52
2018-10-03T14:56:26.975Z,1.65
2018-10-03T14:58:55.129Z,2.30
2018-10-03T15:01:23.311Z,1.67
2018-10-03T15:03:51.663Z,1.10
2018-10-03T15:06:19.816Z,1.80
2018-10-03T15:08:48.014Z,1.50
2018-10-03T15:11:16.170Z,1.50
2018-10-03T15:13:44.343Z,1.87
2018-10-03T15:16:12.496Z,1.47
2018-10-03T15:18:40.725Z,2.25
2018-10-03T15:21:09.341Z,1.37
2018-10-03T15:23:37.621Z,1.77
2018-10-03T15:26:06.011Z,1.20
2018-10-03T15:28:34.174Z,2.30
2018-10-03T15:31:02.351Z,1.87
2018-10-03T15:33:30.506Z,2.33
2018-10-03T15:35:58.682Z,2.00
2018-10-03T15:38:26.891Z,2.15
2018-10-03T15:40:55.086Z,1.90
2018-10-03T15:43:23.294Z,2.08
2018-10-03T15:45:51.543Z,2.35
2018-10-03T15:48:19.865Z,1.98
2018-10-03T15:50:47.947Z,1.92
2018-10-03T15:53:16.399Z,1.67
2018-10-03T15:55:44.586Z,2.70
2018-10-03T15:58:12.751Z,1.80
2018-10-03T16:00:40.926Z,2.67
2018-10-03T16:03:09.062Z,3.10
2018-10-03T16:05:37.234Z,2.50
2018-10-03T16:08:05.462Z,4.03
2018-10-03T16:10:33.885Z,14.13
2018-10-03T16:13:02.280Z,7.20
2018-10-03T16:15:30.514Z,4.25
2018-10-03T16:17:58.706Z,10.32
2018-10-03T16:20:26.954Z,8.98
2018-10-03T16:22:55.215Z,6.37
2018-10-03T16:25:23.372Z,4.35
2018-10-03T16:27:51.636Z,3.75
2018-10-03T16:30:19.835Z,3.10
2018-10-03T16:32:48.025Z,3.45
2018-10-03T16:35:16.319Z,3.42
2018-10-03T16:37:44.505Z,3.17
2018-10-03T16:40:12.656Z,3.77
2018-10-03T16:42:40.942Z,3.55
2018-10-03T16:45:09.122Z,3.92
2018-10-03T16:47:37.331Z,3.20
2018-10-03T16:50:05.621Z,3.42
2018-10-03T16:52:33.754Z,3.10
2018-10-03T16:55:02.084Z,3.20
2018-10-03T16:57:30.290Z,2.95
2018-10-03T16:59:58.479Z,3.42
2018-10-03T17:02:26.628Z,3.27
2018-10-03T17:04:55.239Z,3.27
2018-10-03T17:07:23.408Z,4.10
2018-10-03T17:09:51.600Z,2.75
2018-10-03T17:12:19.824Z,3.10
2018-10-03T17:14:48.038Z,2.40
2018-10-03T17:17:16.274Z,2.40
2018-10-03T17:19:44.451Z,3.00
2018-10-03T17:22:12.734Z,3.15
2018-10-03T17:24:40.978Z,4.45
2018-10-03T17:27:09.188Z,5.62
2018-10-03T17:29:37.431Z,3.37
2018-10-03T17:32:05.660Z,3.30
2018-10-03T17:34:33.812Z,2.90
2018-10-03T17:37:02.004Z,3.37
2018-10-03T17:39:30.270Z,3.77
2018-10-03T17:41:58.713Z,4.70
2018-10-03T17:44:26.927Z,3.40
2018-10-03T17:46:56.552Z,2.87
2018-10-03T17:49:24.767Z,4.00
2018-10-03T17:51:53.097Z,4.20
2018-10-03T17:54:21.580Z,3.17
2018-10-03T17:56:49.855Z,3.22
2018-10-03T17:59:18.043Z,4.60
2018-10-03T18:01:48.151Z,6.87
2018-10-03T18:04:16.390Z,6.67
2018-10-03T18:06:44.572Z,6.05
2018-10-03T18:09:12.937Z,5.42
2018-10-03T18:11:41.107Z,7.00
2018-10-03T18:14:09.321Z,5.60
2018-10-03T18:16:37.731Z,4.90
2018-10-03T18:19:05.953Z,5.58
2018-10-03T18:21:34.862Z,4.05
2018-10-03T18:24:03.050Z,3.70
2018-10-03T18:26:31.222Z,3.25
2018-10-03T18:28:59.415Z,3.42
2018-10-03T18:31:27.590Z,3.72
2018-10-03T18:33:55.801Z,3.83
2018-10-03T18:36:24.452Z,3.87
2018-10-03T18:38:52.659Z,5.50
2018-10-03T18:41:21.074Z,4.85
2018-10-03T18:43:49.329Z,3.95
2018-10-03T18:46:17.642Z,4.37
2018-10-03T18:48:45.892Z,4.50
2018-10-03T18:51:14.106Z,4.08
2018-10-03T18:53:42.986Z,2.80
2018-10-03T18:56:14.040Z,4.00
2018-10-03T18:58:42.339Z,3.45
2018-10-03T19:01:10.524Z,3.15
2018-10-03T19:03:38.776Z,3.67
2018-10-03T19:06:07.059Z,3.22
2018-10-03T19:08:35.209Z,3.00
2018-10-03T19:11:04.193Z,2.30
2018-10-03T19:13:32.434Z,2.50
2018-10-03T19:16:01.041Z,2.55
2018-10-03T19:18:29.531Z,2.20
2018-10-03T19:20:59.122Z,2.05
2018-10-03T19:23:27.363Z,2.20
2018-10-03T19:25:56.051Z,2.65
2018-10-03T19:28:25.053Z,2.77
2018-10-03T19:30:53.342Z,3.20
2018-10-03T19:33:21.717Z,2.62
2018-10-03T19:35:49.999Z,3.30
2018-10-03T19:38:18.934Z,3.00
2018-10-03T19:40:51.705Z,2.45
2018-10-03T19:43:22.392Z,2.72
2018-10-03T19:45:54.181Z,3.17
2018-10-03T19:48:29.996Z,2.58
2018-10-03T19:51:05.086Z,2.12
2018-10-03T19:53:38.459Z,3.15
2018-10-03T19:56:07.618Z,3.42
2018-10-03T19:58:39.711Z,2.60
2018-10-03T20:01:14.016Z,2.65
2018-10-03T20:03:43.143Z,3.45
2018-10-03T20:06:12.322Z,3.33
2018-10-03T20:08:40.900Z,3.10
2018-10-03T20:11:09.079Z,2.90
2018-10-03T20:13:38.255Z,3.85
2018-10-03T20:16:07.503Z,2.70
2018-10-03T20:18:35.937Z,3.40
2018-10-03T20:21:04.158Z,3.15
2018-10-03T20:23:32.466Z,3.27
2018-10-03T20:26:00.643Z,3.33
2018-10-03T20:28:28.952Z,3.10
2018-10-03T20:30:57.313Z,3.67
2018-10-03T20:33:25.610Z,2.58
2018-10-03T20:35:54.511Z,3.40
2018-10-03T20:38:22.684Z,3.70
2018-10-03T20:40:51.591Z,3.90
2018-10-03T20:43:20.120Z,2.45
2018-10-03T20:45:50.047Z,2.60
2018-10-03T20:48:18.641Z,3.27
2018-10-03T20:50:46.819Z,2.65
2018-10-03T20:53:15.123Z,3.67
2018-10-03T20:55:43.515Z,2.80
2018-10-03T20:58:11.667Z,4.30
2018-10-03T21:00:41.209Z,3.22
2018-10-03T21:03:09.359Z,3.25
2018-10-03T21:05:37.526Z,3.55
2018-10-03T21:08:05.742Z,2.87
2018-10-03T21:10:33.930Z,2.98
2018-10-03T21:13:03.515Z,3.00
2018-10-03T21:15:31.789Z,3.75
2018-10-03T21:18:01.106Z,3.02
2018-10-03T21:20:30.077Z,3.25
2018-10-03T21:22:58.338Z,3.05
2018-10-03T21:25:26.687Z,3.00
2018-10-03T21:27:54.903Z,3.87
2018-10-03T21:30:23.215Z,3.75
2018-10-03T21:32:52.871Z,3.65
2018-10-03T21:35:21.795Z,3.70
2018-10-03T21:37:52.005Z,4.28
2018-10-03T21:40:21.114Z,3.92
2018-10-03T21:42:49.373Z,2.98
2018-10-03T21:45:17.523Z,3.20
2018-10-03T21:47:45.731Z,3.40
2018-10-03T21:50:13.907Z,3.72
2018-10-03T21:52:42.104Z,3.65
2018-10-03T21:55:10.490Z,3.42
2018-10-03T21:57:38.696Z,3.67
2018-10-03T22:00:07.954Z,3.77
2018-10-03T22:02:36.179Z,4.47
2018-10-03T22:05:06.465Z,3.55
2018-10-03T22:07:34.657Z,4.47
2018-10-03T22:10:02.839Z,3.40
2018-10-03T22:12:31.075Z,3.42
2018-10-03T22:14:59.261Z,3.77
2018-10-03T22:17:27.403Z,3.55
2018-10-03T22:19:56.663Z,3.80
2018-10-03T22:22:24.930Z,3.45
2018-10-03T22:24:54.245Z,3.75
2018-10-03T22:27:22.411Z,3.92
2018-10-03T22:29:50.925Z,3.47
2018-10-03T22:32:19.406Z,3.30
2018-10-03T22:34:47.607Z,4.33
2018-10-03T22:37:15.835Z,3.60
2018-10-03T22:39:44.071Z,3.37
2018-10-03T22:42:12.260Z,3.30
2018-10-03T22:44:40.423Z,3.92
2018-10-03T22:47:08.711Z,3.90
2018-10-03T22:49:36.867Z,3.83
2018-10-03T22:52:05.063Z,4.00
2018-10-03T22:54:33.287Z,3.45
2018-10-03T22:57:01.460Z,4.17
2018-10-03T22:59:29.638Z,4.35
2018-10-03T23:01:58.165Z,4.05
2018-10-03T23:04:26.543Z,3.52
2018-10-03T23:06:54.694Z,3.70
2018-10-03T23:09:22.859Z,3.65
2018-10-03T23:11:51.041Z,4.33
2018-10-03T23:14:19.211Z,3.40
2018-10-03T23:16:47.442Z,3.75
2018-10-03T23:19:15.590Z,3.83
2018-10-03T23:21:43.805Z,4.33
2018-10-03T23:24:15.983Z,3.17
2018-10-03T23:26:44.152Z,3.02
2018-10-03T23:29:12.298Z,3.83
2018-10-03T23:31:40.464Z,3.98
2018-10-03T23:34:08.698Z,5.58
2018-10-03T23:36:36.874Z,3.20
2018-10-03T23:39:07.810Z,3.33
2018-10-03T23:41:36.005Z,3.47
2018-10-03T23:44:04.167Z,3.87
2018-10-03T23:46:32.343Z,4.42
2018-10-03T23:49:00.502Z,3.33
2018-10-03T23:51:28.678Z,3.58
2018-10-03T23:53:56.844Z,3.00
2018-10-03T23:56:25.026Z,3.50
2018-10-03T23:58:53.204Z,3.50
